sensor_id;sensor_type;location;lat;lon;timestamp;P1;durP1;ratioP1;P2;durP2;ratioP2
67065;SDS011;53978;43.846;25.952;2023-12-20T00:01:31;7.03;;;4.28;;
67065;SDS011;53978;43.846;25.952;2023-12-20T00:03:57;6.25;;;4.00;;
67065;SDS011;53978;43.846;25.952;2023-12-20T00:06:22;6.15;;;4.32;;
67065;SDS011;53978;43.846;25.952;2023-12-20T00:08:48;9.98;;;4.78;;
67065;SDS011;53978;43.846;25.952;2023-12-20T00:11:14;11.50;;;4.38;;
67065;SDS011;53978;43.846;25.952;2023-12-20T00:13:39;7.68;;;4.30;;
67065;SDS011;53978;43.846;25.952;2023-12-20T00:16:05;6.32;;;4.30;;
67065;SDS011;53978;43.846;25.952;2023-12-20T00:18:30;8.07;;;4.65;;
67065;SDS011;53978;43.846;25.952;2023-12-20T00:20:56;7.97;;;4.57;;
67065;SDS011;53978;43.846;25.952;2023-12-20T00:23:21;6.05;;;3.97;;
67065;SDS011;53978;43.846;25.952;2023-12-20T00:25:48;7.65;;;4.20;;
67065;SDS011;53978;43.846;25.952;2023-12-20T00:28:14;7.60;;;3.95;;
67065;SDS011;53978;43.846;25.952;2023-12-20T00:30:40;6.78;;;4.38;;
67065;SDS011;53978;43.846;25.952;2023-12-20T00:33:08;5.43;;;3.67;;
67065;SDS011;53978;43.846;25.952;2023-12-20T00:35:33;6.75;;;4.40;;
67065;SDS011;53978;43.846;25.952;2023-12-20T00:37:59;7.93;;;4.18;;
67065;SDS011;53978;43.846;25.952;2023-12-20T00:40:24;6.55;;;3.80;;
67065;SDS011;53978;43.846;25.952;2023-12-20T00:42:50;6.20;;;3.83;;
67065;SDS011;53978;43.846;25.952;2023-12-20T00:45:18;7.13;;;3.80;;
67065;SDS011;53978;43.846;25.952;2023-12-20T00:47:44;7.50;;;3.88;;
67065;SDS011;53978;43.846;25.952;2023-12-20T00:50:10;6.50;;;3.60;;
67065;SDS011;53978;43.846;25.952;2023-12-20T00:52:38;7.20;;;2.95;;
67065;SDS011;53978;43.846;25.952;2023-12-20T00:55:06;5.75;;;3.30;;
67065;SDS011;53978;43.846;25.952;2023-12-20T00:57:32;3.80;;;2.80;;
67065;SDS011;53978;43.846;25.952;2023-12-20T00:59:58;7.03;;;3.72;;
67065;SDS011;53978;43.846;25.952;2023-12-20T01:02:26;4.93;;;3.05;;
67065;SDS011;53978;43.846;25.952;2023-12-20T01:04:51;6.75;;;3.67;;
67065;SDS011;53978;43.846;25.952;2023-12-20T01:07:16;4.82;;;2.90;;
67065;SDS011;53978;43.846;25.952;2023-12-20T01:09:44;4.57;;;2.90;;
67065;SDS011;53978;43.846;25.952;2023-12-20T01:12:10;4.05;;;2.78;;
67065;SDS011;53978;43.846;25.952;2023-12-20T01:14:35;4.25;;;2.90;;
67065;SDS011;53978;43.846;25.952;2023-12-20T01:17:02;4.03;;;2.72;;
67065;SDS011;53978;43.846;25.952;2023-12-20T01:19:27;6.53;;;2.90;;
67065;SDS011;53978;43.846;25.952;2023-12-20T01:21:55;4.13;;;2.63;;
67065;SDS011;53978;43.846;25.952;2023-12-20T01:24:20;4.93;;;3.20;;
67065;SDS011;53978;43.846;25.952;2023-12-20T01:26:47;5.35;;;3.13;;
67065;SDS011;53978;43.846;25.952;2023-12-20T01:29:13;5.00;;;3.08;;
67065;SDS011;53978;43.846;25.952;2023-12-20T01:31:39;6.22;;;3.13;;
67065;SDS011;53978;43.846;25.952;2023-12-20T01:34:05;8.18;;;3.40;;
67065;SDS011;53978;43.846;25.952;2023-12-20T01:36:37;5.68;;;3.30;;
67065;SDS011;53978;43.846;25.952;2023-12-20T01:39:12;6.10;;;3.55;;
67065;SDS011;53978;43.846;25.952;2023-12-20T01:41:52;6.90;;;3.40;;
67065;SDS011;53978;43.846;25.952;2023-12-20T01:44:27;8.40;;;3.88;;
67065;SDS011;53978;43.846;25.952;2023-12-20T01:46:58;6.25;;;3.65;;
67065;SDS011;53978;43.846;25.952;2023-12-20T01:49:31;7.07;;;3.85;;
67065;SDS011;53978;43.846;25.952;2023-12-20T01:51:57;5.95;;;3.60;;
67065;SDS011;53978;43.846;25.952;2023-12-20T01:54:25;10.82;;;3.78;;
67065;SDS011;53978;43.846;25.952;2023-12-20T01:56:54;8.10;;;3.95;;
67065;SDS011;53978;43.846;25.952;2023-12-20T01:59:28;5.13;;;3.20;;
67065;SDS011;53978;43.846;25.952;2023-12-20T02:02:03;6.40;;;3.38;;
67065;SDS011;53978;43.846;25.952;2023-12-20T02:04:41;6.30;;;3.00;;
67065;SDS011;53978;43.846;25.952;2023-12-20T02:07:20;4.82;;;3.30;;
67065;SDS011;53978;43.846;25.952;2023-12-20T02:09:55;4.95;;;3.05;;
67065;SDS011;53978;43.846;25.952;2023-12-20T02:14:57;4.03;;;2.70;;
67065;SDS011;53978;43.846;25.952;2023-12-20T02:17:22;5.22;;;3.35;;
67065;SDS011;53978;43.846;25.952;2023-12-20T02:19:53;7.63;;;3.50;;
67065;SDS011;53978;43.846;25.952;2023-12-20T02:22:22;6.13;;;3.53;;
67065;SDS011;53978;43.846;25.952;2023-12-20T02:24:47;6.32;;;3.55;;
67065;SDS011;53978;43.846;25.952;2023-12-20T02:27:15;6.93;;;3.97;;
67065;SDS011;53978;43.846;25.952;2023-12-20T02:29:50;5.90;;;3.25;;
67065;SDS011;53978;43.846;25.952;2023-12-20T02:32:18;4.65;;;3.05;;
67065;SDS011;53978;43.846;25.952;2023-12-20T02:35:07;4.68;;;3.22;;
67065;SDS011;53978;43.846;25.952;2023-12-20T02:37:35;4.68;;;3.20;;
67065;SDS011;53978;43.846;25.952;2023-12-20T02:42:52;5.28;;;2.67;;
67065;SDS011;53978;43.846;25.952;2023-12-20T02:45:17;6.78;;;2.83;;
67065;SDS011;53978;43.846;25.952;2023-12-20T02:47:59;3.75;;;2.60;;
67065;SDS011;53978;43.846;25.952;2023-12-20T02:50:30;5.55;;;3.10;;
67065;SDS011;53978;43.846;25.952;2023-12-20T02:52:56;6.45;;;3.17;;
67065;SDS011;53978;43.846;25.952;2023-12-20T02:55:24;4.35;;;2.88;;
67065;SDS011;53978;43.846;25.952;2023-12-20T02:57:52;4.38;;;2.95;;
67065;SDS011;53978;43.846;25.952;2023-12-20T03:00:20;4.50;;;3.30;;
67065;SDS011;53978;43.846;25.952;2023-12-20T03:02:48;5.30;;;3.50;;
67065;SDS011;53978;43.846;25.952;2023-12-20T03:05:19;8.25;;;3.33;;
67065;SDS011;53978;43.846;25.952;2023-12-20T03:07:45;8.18;;;3.25;;
67065;SDS011;53978;43.846;25.952;2023-12-20T03:10:13;4.75;;;2.67;;
67065;SDS011;53978;43.846;25.952;2023-12-20T03:12:41;5.25;;;3.13;;
67065;SDS011;53978;43.846;25.952;2023-12-20T03:15:14;4.40;;;2.83;;
67065;SDS011;53978;43.846;25.952;2023-12-20T03:17:45;4.72;;;3.10;;
67065;SDS011;53978;43.846;25.952;2023-12-20T03:20:19;6.50;;;3.70;;
67065;SDS011;53978;43.846;25.952;2023-12-20T03:22:46;5.65;;;3.47;;
67065;SDS011;53978;43.846;25.952;2023-12-20T03:25:14;4.20;;;2.92;;
67065;SDS011;53978;43.846;25.952;2023-12-20T03:28:00;6.68;;;3.80;;
67065;SDS011;53978;43.846;25.952;2023-12-20T03:30:25;7.93;;;3.63;;
67065;SDS011;53978;43.846;25.952;2023-12-20T03:32:51;5.60;;;3.50;;
67065;SDS011;53978;43.846;25.952;2023-12-20T03:35:16;4.90;;;3.20;;
67065;SDS011;53978;43.846;25.952;2023-12-20T03:37:42;8.70;;;3.60;;
67065;SDS011;53978;43.846;25.952;2023-12-20T03:40:07;5.80;;;3.25;;
67065;SDS011;53978;43.846;25.952;2023-12-20T03:42:33;6.18;;;3.80;;
67065;SDS011;53978;43.846;25.952;2023-12-20T03:45:00;5.60;;;3.72;;
67065;SDS011;53978;43.846;25.952;2023-12-20T03:47:28;6.28;;;3.20;;
67065;SDS011;53978;43.846;25.952;2023-12-20T03:49:56;5.65;;;3.35;;
67065;SDS011;53978;43.846;25.952;2023-12-20T03:52:22;5.57;;;3.42;;
67065;SDS011;53978;43.846;25.952;2023-12-20T03:54:49;5.88;;;3.10;;
67065;SDS011;53978;43.846;25.952;2023-12-20T03:57:16;9.73;;;3.50;;
67065;SDS011;53978;43.846;25.952;2023-12-20T03:59:41;5.88;;;3.53;;
67065;SDS011;53978;43.846;25.952;2023-12-20T04:02:07;5.20;;;3.38;;
67065;SDS011;53978;43.846;25.952;2023-12-20T04:04:32;6.72;;;3.35;;
67065;SDS011;53978;43.846;25.952;2023-12-20T04:06:58;6.47;;;3.55;;
67065;SDS011;53978;43.846;25.952;2023-12-20T04:09:23;5.38;;;3.40;;
67065;SDS011;53978;43.846;25.952;2023-12-20T04:11:48;8.30;;;3.25;;
67065;SDS011;53978;43.846;25.952;2023-12-20T04:14:19;6.38;;;3.38;;
67065;SDS011;53978;43.846;25.952;2023-12-20T04:16:44;5.90;;;3.42;;
67065;SDS011;53978;43.846;25.952;2023-12-20T04:19:13;6.10;;;3.13;;
67065;SDS011;53978;43.846;25.952;2023-12-20T04:21:43;5.32;;;3.20;;
67065;SDS011;53978;43.846;25.952;2023-12-20T04:24:19;5.03;;;3.15;;
67065;SDS011;53978;43.846;25.952;2023-12-20T04:26:45;5.13;;;3.60;;
67065;SDS011;53978;43.846;25.952;2023-12-20T04:29:12;9.75;;;3.80;;
67065;SDS011;53978;43.846;25.952;2023-12-20T04:31:43;6.22;;;3.42;;
67065;SDS011;53978;43.846;25.952;2023-12-20T04:36:47;6.18;;;3.90;;
67065;SDS011;53978;43.846;25.952;2023-12-20T04:39:17;5.78;;;3.65;;
67065;SDS011;53978;43.846;25.952;2023-12-20T04:41:42;8.90;;;3.83;;
67065;SDS011;53978;43.846;25.952;2023-12-20T04:44:08;7.18;;;4.00;;
67065;SDS011;53978;43.846;25.952;2023-12-20T04:46:33;4.97;;;3.60;;
67065;SDS011;53978;43.846;25.952;2023-12-20T04:48:59;7.68;;;4.07;;
67065;SDS011;53978;43.846;25.952;2023-12-20T04:51:24;6.03;;;3.83;;
67065;SDS011;53978;43.846;25.952;2023-12-20T04:53:52;7.97;;;3.88;;
67065;SDS011;53978;43.846;25.952;2023-12-20T04:56:18;7.53;;;4.20;;
67065;SDS011;53978;43.846;25.952;2023-12-20T04:58:45;5.53;;;3.63;;
67065;SDS011;53978;43.846;25.952;2023-12-20T05:01:13;7.53;;;3.72;;
67065;SDS011;53978;43.846;25.952;2023-12-20T05:03:39;4.60;;;3.72;;
67065;SDS011;53978;43.846;25.952;2023-12-20T05:06:05;7.43;;;4.07;;
67065;SDS011;53978;43.846;25.952;2023-12-20T05:08:31;8.85;;;3.92;;
67065;SDS011;53978;43.846;25.952;2023-12-20T05:10:56;5.03;;;3.58;;
67065;SDS011;53978;43.846;25.952;2023-12-20T05:13:22;7.63;;;3.60;;
67065;SDS011;53978;43.846;25.952;2023-12-20T05:15:47;9.75;;;4.75;;
67065;SDS011;53978;43.846;25.952;2023-12-20T05:18:13;12.88;;;5.82;;
67065;SDS011;53978;43.846;25.952;2023-12-20T05:20:39;10.68;;;6.57;;
67065;SDS011;53978;43.846;25.952;2023-12-20T05:23:04;14.27;;;6.95;;
67065;SDS011;53978;43.846;25.952;2023-12-20T05:25:30;14.45;;;7.90;;
67065;SDS011;53978;43.846;25.952;2023-12-20T05:27:55;11.35;;;6.88;;
67065;SDS011;53978;43.846;25.952;2023-12-20T05:30:21;9.73;;;5.93;;
67065;SDS011;53978;43.846;25.952;2023-12-20T05:32:51;9.35;;;5.22;;
67065;SDS011;53978;43.846;25.952;2023-12-20T05:35:19;9.93;;;5.20;;
67065;SDS011;53978;43.846;25.952;2023-12-20T05:37:48;7.63;;;4.97;;
67065;SDS011;53978;43.846;25.952;2023-12-20T05:40:16;6.65;;;4.22;;
67065;SDS011;53978;43.846;25.952;2023-12-20T05:42:41;7.97;;;4.35;;
67065;SDS011;53978;43.846;25.952;2023-12-20T05:45:07;8.35;;;4.85;;
67065;SDS011;53978;43.846;25.952;2023-12-20T05:47:35;8.98;;;5.28;;
67065;SDS011;53978;43.846;25.952;2023-12-20T05:50:01;13.45;;;5.57;;
67065;SDS011;53978;43.846;25.952;2023-12-20T05:52:31;8.35;;;5.28;;
67065;SDS011;53978;43.846;25.952;2023-12-20T05:54:56;11.05;;;5.10;;
67065;SDS011;53978;43.846;25.952;2023-12-20T05:57:26;14.68;;;5.80;;
67065;SDS011;53978;43.846;25.952;2023-12-20T05:59:51;31.27;;;7.38;;
67065;SDS011;53978;43.846;25.952;2023-12-20T06:02:16;17.73;;;6.53;;
67065;SDS011;53978;43.846;25.952;2023-12-20T06:04:42;22.92;;;6.25;;
67065;SDS011;53978;43.846;25.952;2023-12-20T06:07:13;14.55;;;6.93;;
67065;SDS011;53978;43.846;25.952;2023-12-20T06:09:44;14.93;;;7.07;;
67065;SDS011;53978;43.846;25.952;2023-12-20T06:12:10;13.90;;;6.22;;
67065;SDS011;53978;43.846;25.952;2023-12-20T06:14:36;15.40;;;6.43;;
67065;SDS011;53978;43.846;25.952;2023-12-20T06:17:02;14.05;;;6.03;;
67065;SDS011;53978;43.846;25.952;2023-12-20T06:19:28;10.65;;;6.35;;
67065;SDS011;53978;43.846;25.952;2023-12-20T06:21:56;12.02;;;6.07;;
67065;SDS011;53978;43.846;25.952;2023-12-20T06:24:21;12.32;;;6.03;;
67065;SDS011;53978;43.846;25.952;2023-12-20T06:26:47;15.48;;;6.57;;
67065;SDS011;53978;43.846;25.952;2023-12-20T06:29:12;15.27;;;8.00;;
67065;SDS011;53978;43.846;25.952;2023-12-20T06:31:41;21.67;;;9.18;;
67065;SDS011;53978;43.846;25.952;2023-12-20T06:34:06;18.73;;;10.50;;
67065;SDS011;53978;43.846;25.952;2023-12-20T06:36:32;23.70;;;11.02;;
67065;SDS011;53978;43.846;25.952;2023-12-20T06:38:57;20.15;;;10.73;;
67065;SDS011;53978;43.846;25.952;2023-12-20T06:41:24;24.98;;;11.57;;
67065;SDS011;53978;43.846;25.952;2023-12-20T06:43:50;30.70;;;11.68;;
67065;SDS011;53978;43.846;25.952;2023-12-20T06:46:16;20.00;;;11.25;;
67065;SDS011;53978;43.846;25.952;2023-12-20T06:48:42;23.90;;;12.18;;
67065;SDS011;53978;43.846;25.952;2023-12-20T06:51:10;30.83;;;12.35;;
67065;SDS011;53978;43.846;25.952;2023-12-20T06:53:37;23.02;;;12.05;;
67065;SDS011;53978;43.846;25.952;2023-12-20T06:56:02;29.02;;;12.75;;
67065;SDS011;53978;43.846;25.952;2023-12-20T06:58:28;32.78;;;12.52;;
67065;SDS011;53978;43.846;25.952;2023-12-20T07:00:53;29.30;;;12.05;;
67065;SDS011;53978;43.846;25.952;2023-12-20T07:03:19;27.50;;;11.07;;
67065;SDS011;53978;43.846;25.952;2023-12-20T07:05:44;25.65;;;12.48;;
67065;SDS011;53978;43.846;25.952;2023-12-20T07:08:10;30.13;;;14.55;;
67065;SDS011;53978;43.846;25.952;2023-12-20T07:10:36;33.95;;;13.48;;
67065;SDS011;53978;43.846;25.952;2023-12-20T07:13:02;25.10;;;12.00;;
67065;SDS011;53978;43.846;25.952;2023-12-20T07:15:29;26.77;;;12.98;;
67065;SDS011;53978;43.846;25.952;2023-12-20T07:17:56;25.40;;;12.18;;
67065;SDS011;53978;43.846;25.952;2023-12-20T07:20:32;26.13;;;13.38;;
67065;SDS011;53978;43.846;25.952;2023-12-20T07:22:57;28.65;;;14.95;;
67065;SDS011;53978;43.846;25.952;2023-12-20T07:25:31;29.15;;;14.85;;
67065;SDS011;53978;43.846;25.952;2023-12-20T07:27:58;38.13;;;16.27;;
67065;SDS011;53978;43.846;25.952;2023-12-20T07:30:24;29.80;;;17.10;;
67065;SDS011;53978;43.846;25.952;2023-12-20T07:32:52;36.75;;;17.85;;
67065;SDS011;53978;43.846;25.952;2023-12-20T07:35:18;33.50;;;17.38;;
67065;SDS011;53978;43.846;25.952;2023-12-20T07:37:44;32.72;;;17.40;;
67065;SDS011;53978;43.846;25.952;2023-12-20T07:40:11;35.92;;;15.77;;
67065;SDS011;53978;43.846;25.952;2023-12-20T07:42:37;33.20;;;17.42;;
67065;SDS011;53978;43.846;25.952;2023-12-20T07:45:07;35.58;;;16.98;;
67065;SDS011;53978;43.846;25.952;2023-12-20T07:47:35;30.98;;;15.85;;
67065;SDS011;53978;43.846;25.952;2023-12-20T07:50:04;29.40;;;15.20;;
67065;SDS011;53978;43.846;25.952;2023-12-20T07:52:32;30.13;;;15.05;;
67065;SDS011;53978;43.846;25.952;2023-12-20T07:55:00;36.38;;;16.25;;
67065;SDS011;53978;43.846;25.952;2023-12-20T07:57:29;35.17;;;15.70;;
67065;SDS011;53978;43.846;25.952;2023-12-20T07:59:55;32.08;;;15.32;;
67065;SDS011;53978;43.846;25.952;2023-12-20T08:02:21;31.80;;;16.77;;
67065;SDS011;53978;43.846;25.952;2023-12-20T08:04:46;30.85;;;16.05;;
67065;SDS011;53978;43.846;25.952;2023-12-20T08:07:12;32.53;;;15.75;;
67065;SDS011;53978;43.846;25.952;2023-12-20T08:09:37;24.27;;;13.27;;
67065;SDS011;53978;43.846;25.952;2023-12-20T08:12:03;21.73;;;11.45;;
67065;SDS011;53978;43.846;25.952;2023-12-20T08:14:31;18.17;;;8.75;;
67065;SDS011;53978;43.846;25.952;2023-12-20T08:16:56;13.50;;;7.15;;
67065;SDS011;53978;43.846;25.952;2023-12-20T08:19:22;10.07;;;5.90;;
67065;SDS011;53978;43.846;25.952;2023-12-20T08:21:47;11.13;;;5.75;;
67065;SDS011;53978;43.846;25.952;2023-12-20T08:24:14;12.85;;;5.15;;
67065;SDS011;53978;43.846;25.952;2023-12-20T08:26:41;11.18;;;5.53;;
67065;SDS011;53978;43.846;25.952;2023-12-20T08:29:14;12.18;;;6.43;;
67065;SDS011;53978;43.846;25.952;2023-12-20T08:31:42;10.02;;;5.80;;
67065;SDS011;53978;43.846;25.952;2023-12-20T08:34:09;13.90;;;6.43;;
67065;SDS011;53978;43.846;25.952;2023-12-20T08:36:36;15.52;;;6.55;;
67065;SDS011;53978;43.846;25.952;2023-12-20T08:39:02;13.52;;;7.38;;
67065;SDS011;53978;43.846;25.952;2023-12-20T08:41:28;11.75;;;7.45;;
67065;SDS011;53978;43.846;25.952;2023-12-20T08:43:54;18.25;;;9.07;;
67065;SDS011;53978;43.846;25.952;2023-12-20T08:46:19;37.15;;;16.40;;
67065;SDS011;53978;43.846;25.952;2023-12-20T08:48:47;29.75;;;14.90;;
67065;SDS011;53978;43.846;25.952;2023-12-20T08:51:13;19.35;;;10.40;;
67065;SDS011;53978;43.846;25.952;2023-12-20T08:53:38;21.95;;;10.55;;
67065;SDS011;53978;43.846;25.952;2023-12-20T08:56:04;16.88;;;9.48;;
67065;SDS011;53978;43.846;25.952;2023-12-20T08:58:30;16.90;;;9.10;;
67065;SDS011;53978;43.846;25.952;2023-12-20T09:00:55;17.30;;;8.73;;
67065;SDS011;53978;43.846;25.952;2023-12-20T09:03:24;12.40;;;6.55;;
67065;SDS011;53978;43.846;25.952;2023-12-20T09:05:51;12.93;;;6.50;;
67065;SDS011;53978;43.846;25.952;2023-12-20T09:08:17;11.23;;;5.68;;
67065;SDS011;53978;43.846;25.952;2023-12-20T09:10:43;7.70;;;5.22;;
67065;SDS011;53978;43.846;25.952;2023-12-20T09:13:09;11.60;;;6.40;;
67065;SDS011;53978;43.846;25.952;2023-12-20T09:15:35;10.57;;;6.55;;
67065;SDS011;53978;43.846;25.952;2023-12-20T09:18:05;9.75;;;5.45;;
67065;SDS011;53978;43.846;25.952;2023-12-20T09:20:37;9.48;;;5.60;;
67065;SDS011;53978;43.846;25.952;2023-12-20T09:23:07;10.10;;;5.60;;
67065;SDS011;53978;43.846;25.952;2023-12-20T09:25:33;12.38;;;6.97;;
67065;SDS011;53978;43.846;25.952;2023-12-20T09:27:58;12.15;;;6.45;;
67065;SDS011;53978;43.846;25.952;2023-12-20T09:30:24;11.15;;;5.78;;
67065;SDS011;53978;43.846;25.952;2023-12-20T09:32:50;8.73;;;5.70;;
67065;SDS011;53978;43.846;25.952;2023-12-20T09:35:15;10.73;;;6.03;;
67065;SDS011;53978;43.846;25.952;2023-12-20T09:37:41;7.75;;;5.25;;
67065;SDS011;53978;43.846;25.952;2023-12-20T09:40:10;11.98;;;6.25;;
67065;SDS011;53978;43.846;25.952;2023-12-20T09:45:34;14.18;;;8.05;;
67065;SDS011;53978;43.846;25.952;2023-12-20T09:48:00;14.90;;;8.85;;
67065;SDS011;53978;43.846;25.952;2023-12-20T09:50:26;17.02;;;9.65;;
67065;SDS011;53978;43.846;25.952;2023-12-20T09:52:53;19.95;;;8.30;;
67065;SDS011;53978;43.846;25.952;2023-12-20T09:55:21;15.48;;;8.13;;
67065;SDS011;53978;43.846;25.952;2023-12-20T09:57:47;17.13;;;9.07;;
67065;SDS011;53978;43.846;25.952;2023-12-20T10:00:14;17.10;;;8.52;;
67065;SDS011;53978;43.846;25.952;2023-12-20T10:02:42;15.32;;;7.50;;
67065;SDS011;53978;43.846;25.952;2023-12-20T10:05:15;13.52;;;6.93;;
67065;SDS011;53978;43.846;25.952;2023-12-20T10:07:44;14.55;;;7.70;;
67065;SDS011;53978;43.846;25.952;2023-12-20T10:10:11;11.63;;;6.53;;
67065;SDS011;53978;43.846;25.952;2023-12-20T10:12:38;13.98;;;7.07;;
67065;SDS011;53978;43.846;25.952;2023-12-20T10:15:04;14.35;;;7.70;;
67065;SDS011;53978;43.846;25.952;2023-12-20T10:17:32;15.25;;;8.48;;
67065;SDS011;53978;43.846;25.952;2023-12-20T10:19:57;13.95;;;7.75;;
67065;SDS011;53978;43.846;25.952;2023-12-20T10:22:24;13.93;;;8.20;;
67065;SDS011;53978;43.846;25.952;2023-12-20T10:24:50;12.85;;;8.13;;
67065;SDS011;53978;43.846;25.952;2023-12-20T10:27:23;15.57;;;8.30;;
67065;SDS011;53978;43.846;25.952;2023-12-20T10:29:51;17.05;;;8.63;;
67065;SDS011;53978;43.846;25.952;2023-12-20T10:32:23;14.32;;;7.28;;
67065;SDS011;53978;43.846;25.952;2023-12-20T10:34:50;12.27;;;7.45;;
67065;SDS011;53978;43.846;25.952;2023-12-20T10:37:17;15.95;;;7.85;;
67065;SDS011;53978;43.846;25.952;2023-12-20T10:39:44;12.85;;;7.57;;
67065;SDS011;53978;43.846;25.952;2023-12-20T10:42:17;12.10;;;7.17;;
67065;SDS011;53978;43.846;25.952;2023-12-20T10:44:43;14.10;;;7.47;;
67065;SDS011;53978;43.846;25.952;2023-12-20T10:47:16;10.10;;;6.55;;
67065;SDS011;53978;43.846;25.952;2023-12-20T10:49:46;9.25;;;5.95;;
67065;SDS011;53978;43.846;25.952;2023-12-20T10:52:12;10.40;;;6.43;;
67065;SDS011;53978;43.846;25.952;2023-12-20T10:54:41;9.68;;;6.32;;
67065;SDS011;53978;43.846;25.952;2023-12-20T10:57:07;13.10;;;6.65;;
67065;SDS011;53978;43.846;25.952;2023-12-20T10:59:38;11.70;;;6.65;;
67065;SDS011;53978;43.846;25.952;2023-12-20T11:02:04;14.23;;;5.90;;
67065;SDS011;53978;43.846;25.952;2023-12-20T11:04:46;8.23;;;5.55;;
67065;SDS011;53978;43.846;25.952;2023-12-20T11:07:23;11.68;;;5.75;;
67065;SDS011;53978;43.846;25.952;2023-12-20T11:10:01;8.88;;;5.97;;
67065;SDS011;53978;43.846;25.952;2023-12-20T11:12:37;8.60;;;5.00;;
67065;SDS011;53978;43.846;25.952;2023-12-20T11:15:13;11.02;;;4.85;;
67065;SDS011;53978;43.846;25.952;2023-12-20T11:17:40;10.10;;;5.25;;
67065;SDS011;53978;43.846;25.952;2023-12-20T11:20:09;10.45;;;6.00;;
67065;SDS011;53978;43.846;25.952;2023-12-20T11:22:36;12.13;;;6.80;;
67065;SDS011;53978;43.846;25.952;2023-12-20T11:27:29;13.65;;;6.95;;
67065;SDS011;53978;43.846;25.952;2023-12-20T11:29:56;16.75;;;7.88;;
67065;SDS011;53978;43.846;25.952;2023-12-20T11:32:28;13.57;;;6.60;;
67065;SDS011;53978;43.846;25.952;2023-12-20T11:37:30;13.57;;;7.78;;
67065;SDS011;53978;43.846;25.952;2023-12-20T11:40:02;13.85;;;8.15;;
67065;SDS011;53978;43.846;25.952;2023-12-20T11:42:50;14.13;;;7.72;;
67065;SDS011;53978;43.846;25.952;2023-12-20T11:45:23;12.63;;;7.97;;
67065;SDS011;53978;43.846;25.952;2023-12-20T11:47:50;15.85;;;8.20;;
67065;SDS011;53978;43.846;25.952;2023-12-20T11:50:17;16.35;;;8.43;;
67065;SDS011;53978;43.846;25.952;2023-12-20T11:52:43;14.02;;;7.82;;
67065;SDS011;53978;43.846;25.952;2023-12-20T11:55:09;14.95;;;8.80;;
67065;SDS011;53978;43.846;25.952;2023-12-20T11:57:35;16.45;;;8.45;;
67065;SDS011;53978;43.846;25.952;2023-12-20T12:00:01;13.07;;;7.90;;
67065;SDS011;53978;43.846;25.952;2023-12-20T12:02:30;9.57;;;5.60;;
67065;SDS011;53978;43.846;25.952;2023-12-20T12:04:55;10.25;;;5.88;;
67065;SDS011;53978;43.846;25.952;2023-12-20T12:07:22;11.75;;;6.07;;
67065;SDS011;53978;43.846;25.952;2023-12-20T12:09:47;12.43;;;6.32;;
67065;SDS011;53978;43.846;25.952;2023-12-20T12:12:13;11.13;;;5.90;;
67065;SDS011;53978;43.846;25.952;2023-12-20T12:14:39;9.15;;;5.35;;
67065;SDS011;53978;43.846;25.952;2023-12-20T12:17:09;7.93;;;4.95;;
67065;SDS011;53978;43.846;25.952;2023-12-20T12:19:36;9.35;;;4.25;;
67065;SDS011;53978;43.846;25.952;2023-12-20T12:22:09;11.05;;;3.85;;
67065;SDS011;53978;43.846;25.952;2023-12-20T12:24:38;5.25;;;3.25;;
67065;SDS011;53978;43.846;25.952;2023-12-20T12:27:05;6.28;;;3.08;;
67065;SDS011;53978;43.846;25.952;2023-12-20T12:29:34;4.80;;;3.20;;
67065;SDS011;53978;43.846;25.952;2023-12-20T12:32:06;3.67;;;3.00;;
67065;SDS011;53978;43.846;25.952;2023-12-20T12:34:35;6.50;;;3.00;;
67065;SDS011;53978;43.846;25.952;2023-12-20T12:37:03;3.97;;;2.90;;
67065;SDS011;53978;43.846;25.952;2023-12-20T12:39:29;4.55;;;3.03;;
67065;SDS011;53978;43.846;25.952;2023-12-20T12:41:55;7.20;;;3.35;;
67065;SDS011;53978;43.846;25.952;2023-12-20T12:44:20;5.72;;;3.40;;
67065;SDS011;53978;43.846;25.952;2023-12-20T12:46:48;4.53;;;3.08;;
67065;SDS011;53978;43.846;25.952;2023-12-20T12:49:19;6.28;;;3.42;;
67065;SDS011;53978;43.846;25.952;2023-12-20T12:51:45;5.95;;;3.58;;
67065;SDS011;53978;43.846;25.952;2023-12-20T12:54:10;7.32;;;4.35;;
67065;SDS011;53978;43.846;25.952;2023-12-20T12:56:38;6.47;;;4.47;;
67065;SDS011;53978;43.846;25.952;2023-12-20T12:59:03;6.55;;;4.57;;
67065;SDS011;53978;43.846;25.952;2023-12-20T13:01:30;9.80;;;4.78;;
67065;SDS011;53978;43.846;25.952;2023-12-20T13:03:56;7.80;;;4.95;;
67065;SDS011;53978;43.846;25.952;2023-12-20T13:06:22;7.22;;;4.75;;
67065;SDS011;53978;43.846;25.952;2023-12-20T13:08:49;14.80;;;5.13;;
67065;SDS011;53978;43.846;25.952;2023-12-20T13:11:16;7.60;;;4.63;;
67065;SDS011;53978;43.846;25.952;2023-12-20T13:13:42;9.48;;;4.53;;
67065;SDS011;53978;43.846;25.952;2023-12-20T13:16:09;6.05;;;4.00;;
67065;SDS011;53978;43.846;25.952;2023-12-20T13:18:34;10.70;;;4.85;;
67065;SDS011;53978;43.846;25.952;2023-12-20T13:21:07;7.13;;;3.40;;
67065;SDS011;53978;43.846;25.952;2023-12-20T13:23:32;6.18;;;2.78;;
67065;SDS011;53978;43.846;25.952;2023-12-20T13:25:58;4.40;;;2.97;;
67065;SDS011;53978;43.846;25.952;2023-12-20T13:28:23;4.30;;;2.90;;
67065;SDS011;53978;43.846;25.952;2023-12-20T13:30:49;5.07;;;3.03;;
67065;SDS011;53978;43.846;25.952;2023-12-20T13:33:16;9.95;;;4.82;;
67065;SDS011;53978;43.846;25.952;2023-12-20T13:35:43;15.07;;;6.30;;
67065;SDS011;53978;43.846;25.952;2023-12-20T13:38:10;8.93;;;4.80;;
67065;SDS011;53978;43.846;25.952;2023-12-20T13:40:38;9.07;;;4.53;;
67065;SDS011;53978;43.846;25.952;2023-12-20T13:43:06;8.57;;;3.83;;
67065;SDS011;53978;43.846;25.952;2023-12-20T13:45:38;10.73;;;3.72;;
67065;SDS011;53978;43.846;25.952;2023-12-20T13:48:09;10.23;;;4.70;;
67065;SDS011;53978;43.846;25.952;2023-12-20T13:50:36;6.53;;;4.10;;
67065;SDS011;53978;43.846;25.952;2023-12-20T13:53:02;11.82;;;5.30;;
67065;SDS011;53978;43.846;25.952;2023-12-20T13:55:29;9.60;;;4.97;;
67065;SDS011;53978;43.846;25.952;2023-12-20T13:57:55;12.43;;;5.20;;
67065;SDS011;53978;43.846;25.952;2023-12-20T14:00:23;10.80;;;5.35;;
67065;SDS011;53978;43.846;25.952;2023-12-20T14:02:48;6.63;;;4.32;;
67065;SDS011;53978;43.846;25.952;2023-12-20T14:05:14;14.98;;;4.65;;
67065;SDS011;53978;43.846;25.952;2023-12-20T14:07:42;7.55;;;4.72;;
67065;SDS011;53978;43.846;25.952;2023-12-20T14:10:10;9.48;;;5.60;;
67065;SDS011;53978;43.846;25.952;2023-12-20T14:12:38;15.73;;;5.78;;
67065;SDS011;53978;43.846;25.952;2023-12-20T14:15:05;13.63;;;7.15;;
67065;SDS011;53978;43.846;25.952;2023-12-20T14:17:36;15.20;;;7.80;;
67065;SDS011;53978;43.846;25.952;2023-12-20T14:20:14;13.65;;;8.07;;
67065;SDS011;53978;43.846;25.952;2023-12-20T14:22:40;18.30;;;10.15;;
67065;SDS011;53978;43.846;25.952;2023-12-20T14:25:12;19.15;;;9.55;;
67065;SDS011;53978;43.846;25.952;2023-12-20T14:27:39;14.10;;;7.55;;
67065;SDS011;53978;43.846;25.952;2023-12-20T14:30:08;16.27;;;8.20;;
67065;SDS011;53978;43.846;25.952;2023-12-20T14:32:34;18.55;;;8.13;;
67065;SDS011;53978;43.846;25.952;2023-12-20T14:35:05;15.75;;;8.27;;
67065;SDS011;53978;43.846;25.952;2023-12-20T14:37:31;14.95;;;8.30;;
67065;SDS011;53978;43.846;25.952;2023-12-20T14:39:59;17.55;;;8.43;;
67065;SDS011;53978;43.846;25.952;2023-12-20T14:42:24;13.13;;;7.57;;
67065;SDS011;53978;43.846;25.952;2023-12-20T14:44:50;15.65;;;8.55;;